Time;durP1;ratioP1;P1;durP2;ratioP2;P2;SDS_P1;SDS_P2;PMS_P1;PMS_P2;Temp;Humidity;BMP_temperature;BMP_pressure;BME280_temperature;BME280_humidity;BME280_pressure;Samples;Min_cycle;Max_cycle;Signal;HPM_P1;HPM_P2
2022/01/20 00:00:49;;;;;;;14.80;9.88;;;6.80;99.90;;;;;;5045128;28;20385;-83
2022/01/20 00:03:21;;;;;;;13.35;9.40;;;6.80;99.90;;;;;;5044762;28;20028;-83
2022/01/20 00:08:33;;;;;;;11.13;8.65;;;6.80;99.90;;;;;;5057776;28;20053;-83
2022/01/20 00:27:30;;;;;;;16.00;9.27;;;6.80;99.90;;;;;;5057809;28;20108;-83
2022/01/20 00:30:29;;;;;;;19.02;9.77;;;6.70;99.90;;;;;;5056218;28;20048;-83
2022/01/20 00:35:25;;;;;;;16.25;13.00;;;6.70;99.90;;;;;;5058928;28;20017;-83
2022/01/20 00:37:50;;;;;;;18.83;13.88;;;6.60;99.90;;;;;;5057622;28;20370;-83
2022/01/20 00:40:41;;;;;;;20.60;13.20;;;6.60;99.90;;;;;;5056618;28;20032;-83
2022/01/20 00:43:07;;;;;;;18.30;13.40;;;6.50;99.90;;;;;;5054791;28;20029;-83
2022/01/20 00:45:33;;;;;;;21.50;13.63;;;6.50;99.90;;;;;;5057430;28;20025;-83
2022/01/20 00:47:59;;;;;;;20.55;13.90;;;6.40;99.90;;;;;;5057329;28;20075;-82
2022/01/20 00:50:25;;;;;;;20.77;14.70;;;6.40;99.90;;;;;;5056024;28;20025;-83
2022/01/20 00:52:51;;;;;;;20.48;14.07;;;6.40;99.90;;;;;;5055744;28;20036;-83
2022/01/20 00:55:18;;;;;;;21.35;16.08;;;6.40;99.90;;;;;;5057020;28;20071;-83
2022/01/20 00:57:44;;;;;;;20.42;13.73;;;6.40;99.90;;;;;;5057108;28;20049;-83
2022/01/20 01:00:12;;;;;;;20.60;14.05;;;6.30;99.90;;;;;;5055807;28;20028;-83
2022/01/20 01:02:39;;;;;;;21.33;14.65;;;6.30;99.90;;;;;;5057099;28;20021;-83
2022/01/20 01:05:06;;;;;;;23.00;15.35;;;6.30;99.90;;;;;;5057115;28;20455;-83
2022/01/20 01:07:50;;;;;;;22.35;15.65;;;6.30;99.90;;;;;;5055618;28;20057;-83
2022/01/20 01:10:22;;;;;;;24.65;15.90;;;6.20;99.90;;;;;;5056528;28;20036;-83
2022/01/20 01:15:37;;;;;;;19.35;14.95;;;6.20;99.90;;;;;;5057177;28;20063;-83
2022/01/20 01:23:32;;;;;;;26.88;17.38;;;6.10;99.90;;;;;;5057131;28;20029;-84
2022/01/20 01:25:59;;;;;;;26.80;16.13;;;6.10;99.90;;;;;;5056891;28;20412;-83
2022/01/20 01:28:29;;;;;;;25.92;17.50;;;6.10;99.90;;;;;;5055345;28;20033;-84
2022/01/20 01:33:25;;;;;;;28.15;15.48;;;6.10;99.90;;;;;;5056837;28;20029;-84
2022/01/20 01:35:56;;;;;;;24.33;17.25;;;6.00;99.90;;;;;;5055377;28;20052;-83
2022/01/20 01:38:35;;;;;;;25.17;18.20;;;6.00;99.90;;;;;;5056652;28;20032;-83
2022/01/20 01:41:13;;;;;;;23.52;17.52;;;6.00;99.90;;;;;;5056772;28;20028;-83
2022/01/20 01:43:43;;;;;;;25.17;17.48;;;6.00;99.90;;;;;;5056956;28;20029;-83
2022/01/20 01:46:11;;;;;;;27.65;18.83;;;6.00;99.90;;;;;;5055528;28;20116;-83
2022/01/20 01:48:40;;;;;;;23.30;17.20;;;6.00;99.90;;;;;;5055369;28;20029;-83
2022/01/20 01:51:06;;;;;;;30.73;18.50;;;6.00;99.90;;;;;;5053173;28;20467;-83
2022/01/20 01:53:32;;;;;;;28.92;17.63;;;6.00;99.90;;;;;;5056795;28;20032;-83
2022/01/20 01:55:58;;;;;;;31.33;18.38;;;6.00;99.90;;;;;;5059351;28;20021;-83
2022/01/20 01:58:24;;;;;;;31.63;19.27;;;5.90;99.90;;;;;;5059189;28;20025;-83
2022/01/20 02:00:50;;;;;;;26.58;17.13;;;6.00;99.90;;;;;;5060154;28;20112;-84
2022/01/20 02:03:16;;;;;;;27.95;18.10;;;5.90;99.90;;;;;;5059010;28;20035;-83
2022/01/20 02:19:15;;;;;;;26.98;18.52;;;5.90;99.90;;;;;;5059737;28;20028;-83
2022/01/20 02:21:52;;;;;;;26.13;17.33;;;5.90;99.90;;;;;;5058592;28;20390;-83
2022/01/20 02:24:19;;;;;;;26.95;18.73;;;5.90;99.90;;;;;;5059561;28;20021;-83
2022/01/20 02:26:45;;;;;;;31.48;18.35;;;5.80;99.90;;;;;;5058337;28;20053;-84
2022/01/20 02:29:12;;;;;;;30.48;17.00;;;5.90;99.90;;;;;;5058505;28;20033;-83
2022/01/20 02:31:39;;;;;;;25.75;17.30;;;5.90;99.90;;;;;;5059722;28;20029;-83
2022/01/20 02:34:08;;;;;;;23.27;17.27;;;5.90;99.90;;;;;;5059744;28;20025;-83
2022/01/20 02:36:36;;;;;;;27.80;18.38;;;5.90;99.90;;;;;;5059782;28;20021;-84
2022/01/20 02:39:19;;;;;;;25.73;17.67;;;5.90;99.90;;;;;;5059630;28;20017;-83
2022/01/20 02:47:13;;;;;;;28.52;18.27;;;5.90;99.90;;;;;;5059374;28;20059;-83
2022/01/20 02:49:39;;;;;;;25.50;17.02;;;5.90;99.90;;;;;;5059438;28;20025;-83
2022/01/20 02:52:06;;;;;;;32.40;17.52;;;5.80;99.90;;;;;;5057923;28;20040;-83
2022/01/20 02:54:32;;;;;;;25.13;15.70;;;5.80;99.90;;;;;;5058728;28;20021;-83
2022/01/20 02:56:58;;;;;;;26.92;15.88;;;5.80;99.90;;;;;;5059198;28;20025;-83
2022/01/20 02:59:24;;;;;;;21.52;15.82;;;5.80;99.90;;;;;;5057618;28;20027;-83
2022/01/20 03:01:50;;;;;;;21.77;14.93;;;5.80;99.90;;;;;;5058615;28;20025;-83
2022/01/20 03:04:16;;;;;;;22.45;14.07;;;5.70;99.90;;;;;;5057141;28;20107;-83
2022/01/20 03:06:42;;;;;;;24.50;16.08;;;5.70;99.90;;;;;;5054797;28;20051;-83
2022/01/20 03:09:08;;;;;;;26.48;16.02;;;5.70;99.90;;;;;;5056759;28;20045;-83
2022/01/20 03:11:34;;;;;;;24.02;15.10;;;5.70;99.90;;;;;;5058041;28;20021;-83
2022/01/20 03:14:00;;;;;;;22.83;14.73;;;5.70;99.90;;;;;;5058235;28;20017;-83
2022/01/20 03:16:26;;;;;;;27.30;14.20;;;5.60;99.90;;;;;;5058197;28;20033;-83
2022/01/20 03:18:52;;;;;;;22.20;15.07;;;5.60;99.90;;;;;;5058181;28;20013;-83
2022/01/20 03:21:18;;;;;;;22.08;15.30;;;5.60;99.90;;;;;;5058218;28;20444;-83
2022/01/20 03:23:44;;;;;;;22.88;16.20;;;5.60;99.90;;;;;;5056569;28;20107;-83
2022/01/20 03:26:10;;;;;;;26.40;16.38;;;5.60;99.90;;;;;;5049419;28;20092;-84
2022/01/20 03:28:37;;;;;;;22.77;15.07;;;5.60;99.90;;;;;;5058553;28;20025;-84
2022/01/20 03:31:03;;;;;;;23.55;15.10;;;5.50;99.90;;;;;;5048177;28;20063;-84
2022/01/20 03:33:29;;;;;;;23.17;15.70;;;5.50;99.90;;;;;;5041571;28;20060;-84
2022/01/20 03:35:55;;;;;;;22.23;14.55;;;5.50;99.90;;;;;;5042121;28;20040;-84
2022/01/20 03:38:21;;;;;;;21.50;12.90;;;5.40;99.90;;;;;;5038871;28;20048;-84
2022/01/20 03:40:47;;;;;;;20.00;12.38;;;5.40;99.90;;;;;;5039100;28;20025;-83
2022/01/20 03:43:13;;;;;;;21.10;13.27;;;5.40;99.90;;;;;;5039299;28;20024;-85
2022/01/20 03:45:39;;;;;;;18.70;12.10;;;5.40;99.90;;;;;;5036993;28;20033;-84
2022/01/20 03:48:09;;;;;;;17.05;12.35;;;5.40;99.90;;;;;;5053793;28;20183;-83
2022/01/20 03:53:20;;;;;;;20.92;13.60;;;5.40;99.90;;;;;;5058024;28;20403;-83
2022/01/20 03:55:46;;;;;;;23.38;13.95;;;5.30;99.90;;;;;;5056418;28;20021;-83
2022/01/20 03:58:12;;;;;;;21.00;12.82;;;5.30;99.90;;;;;;5056690;28;20028;-83
2022/01/20 04:00:38;;;;;;;20.90;14.30;;;5.30;99.90;;;;;;5057919;28;20040;-83
2022/01/20 04:03:04;;;;;;;20.10;14.77;;;5.30;99.90;;;;;;5058235;28;20017;-83
2022/01/20 04:05:30;;;;;;;21.45;12.95;;;5.30;99.90;;;;;;5056415;28;20029;-83
2022/01/20 04:07:56;;;;;;;18.45;13.63;;;5.20;99.90;;;;;;5049338;28;20080;-83
2022/01/20 04:10:22;;;;;;;20.88;12.45;;;5.20;99.90;;;;;;5057344;28;20036;-83
2022/01/20 04:12:47;;;;;;;20.55;12.48;;;5.20;99.90;;;;;;5057735;28;20036;-83
2022/01/20 04:15:16;;;;;;;17.85;13.07;;;5.10;99.90;;;;;;5053079;28;20032;-83
2022/01/20 04:17:44;;;;;;;17.25;12.85;;;5.10;99.90;;;;;;5057643;28;20021;-83
2022/01/20 04:20:12;;;;;;;16.38;12.50;;;5.00;99.90;;;;;;5044490;28;20149;-83
2022/01/20 04:22:37;;;;;;;17.52;12.38;;;5.10;99.90;;;;;;5042996;28;20057;-82
2022/01/20 04:25:04;;;;;;;17.08;12.32;;;5.00;99.90;;;;;;5057309;28;20032;-82
2022/01/20 04:27:30;;;;;;;15.90;11.50;;;5.00;99.90;;;;;;5057418;28;20058;-82
2022/01/20 04:29:56;;;;;;;19.10;12.57;;;5.00;99.90;;;;;;5057747;28;20024;-82
2022/01/20 04:32:22;;;;;;;16.95;12.55;;;5.00;99.90;;;;;;5057525;28;20022;-82
2022/01/20 04:34:48;;;;;;;17.70;12.35;;;5.00;99.90;;;;;;5057158;28;20048;-82
2022/01/20 04:37:15;;;;;;;24.00;13.68;;;5.00;99.90;;;;;;5056515;28;20013;-82
2022/01/20 04:39:46;;;;;;;20.23;12.98;;;4.90;99.90;;;;;;5057030;28;20397;-83
2022/01/20 04:42:11;;;;;;;21.13;14.32;;;4.90;99.90;;;;;;5057489;28;20485;-83
2022/01/20 04:44:44;;;;;;;21.33;13.25;;;4.90;99.90;;;;;;5057914;28;20108;-83
2022/01/20 04:57:49;;;;;;;21.25;14.85;;;4.80;99.90;;;;;;5056977;28;20562;-82
2022/01/20 05:00:15;;;;;;;23.38;14.02;;;4.70;99.90;;;;;;5058662;28;20029;-83
2022/01/20 05:02:41;;;;;;;16.85;12.13;;;4.60;99.90;;;;;;5052529;28;20025;-82
2022/01/20 05:05:08;;;;;;;16.67;11.45;;;4.60;99.90;;;;;;5055095;28;20017;-82
2022/01/20 05:07:35;;;;;;;24.58;14.63;;;4.60;99.90;;;;;;5056268;28;21417;-83
2022/01/20 05:10:05;;;;;;;24.08;14.70;;;4.60;99.90;;;;;;5055197;28;20033;-82
2022/01/20 05:13:05;;;;;;;17.80;13.32;;;4.60;99.90;;;;;;5056831;28;20027;-82
2022/01/20 05:15:32;;;;;;;23.17;15.35;;;4.60;99.90;;;;;;5057217;28;20393;-82
2022/01/20 05:17:58;;;;;;;22.67;15.40;;;4.60;99.90;;;;;;5057061;28;20115;-83
2022/01/20 05:20:24;;;;;;;21.45;15.35;;;4.60;99.90;;;;;;5055524;28;20048;-83
2022/01/20 05:22:50;;;;;;;28.38;17.25;;;4.60;99.90;;;;;;5054322;28;20528;-82
2022/01/20 05:25:15;;;;;;;31.15;19.67;;;4.60;99.90;;;;;;5048153;28;20037;-83
2022/01/20 05:27:41;;;;;;;255.63;139.80;;;4.60;99.90;;;;;;5045665;28;20025;-82
2022/01/20 05:30:08;;;;;;;58.05;39.83;;;4.60;99.90;;;;;;5058697;28;20086;-83
2022/01/20 05:32:34;;;;;;;23.42;16.48;;;4.60;99.90;;;;;;5059699;28;20509;-82
2022/01/20 05:35:00;;;;;;;28.52;17.40;;;4.60;99.90;;;;;;5059410;28;20107;-82
2022/01/20 05:37:26;;;;;;;23.55;15.63;;;4.50;99.90;;;;;;5060809;28;20066;-81
2022/01/20 05:39:52;;;;;;;23.38;16.55;;;4.50;99.90;;;;;;5058871;28;20044;-82
2022/01/20 05:42:18;;;;;;;272.90;152.18;;;4.50;99.90;;;;;;5060463;28;20036;-82
2022/01/20 05:44:45;;;;;;;37.45;23.08;;;4.50;99.90;;;;;;5060555;28;20029;-82
2022/01/20 05:47:12;;;;;;;24.25;17.55;;;4.50;99.90;;;;;;5055279;28;20026;-82
2022/01/20 05:49:38;;;;;;;24.95;17.33;;;4.50;99.90;;;;;;5056458;28;20094;-82
2022/01/20 05:52:04;;;;;;;27.25;17.90;;;4.50;99.90;;;;;;5059086;28;20021;-82
2022/01/20 05:54:30;;;;;;;23.98;16.20;;;4.50;99.90;;;;;;5058904;28;20025;-82
2022/01/20 05:56:56;;;;;;;26.00;16.05;;;4.40;99.90;;;;;;5060442;28;20028;-82
2022/01/20 05:59:22;;;;;;;23.40;17.23;;;4.40;99.90;;;;;;5060793;28;20044;-82
2022/01/20 06:01:55;;;;;;;29.17;19.55;;;4.40;99.90;;;;;;5059315;28;20044;-82
2022/01/20 06:04:21;;;;;;;26.13;16.40;;;4.40;99.90;;;;;;5059123;28;20375;-82
2022/01/20 06:06:47;;;;;;;25.13;15.95;;;4.30;99.90;;;;;;5058908;28;20519;-82
2022/01/20 06:09:13;;;;;;;24.45;16.50;;;4.30;99.90;;;;;;5059780;28;20091;-82
2022/01/20 06:11:39;;;;;;;24.83;19.45;;;4.30;99.90;;;;;;5058775;28;20029;-82
2022/01/20 06:14:05;;;;;;;22.60;13.55;;;4.30;99.90;;;;;;5060921;28;20471;-82
2022/01/20 06:16:31;;;;;;;16.60;13.60;;;4.20;99.90;;;;;;5059299;28;20031;-81
2022/01/20 06:18:57;;;;;;;20.65;15.88;;;4.30;99.90;;;;;;5055730;28;20072;-82
2022/01/20 06:21:23;;;;;;;17.20;12.80;;;4.20;99.90;;;;;;5050118;28;20482;-82
2022/01/20 06:23:50;;;;;;;23.52;15.82;;;4.20;99.90;;;;;;5058768;28;20051;-82
2022/01/20 06:26:17;;;;;;;32.35;22.27;;;4.20;99.90;;;;;;5052095;28;20032;-82
2022/01/20 06:28:43;;;;;;;18.58;13.52;;;4.20;99.90;;;;;;5059369;28;20029;-82
2022/01/20 06:31:09;;;;;;;20.42;15.48;;;4.30;99.90;;;;;;5058366;28;20028;-82
2022/01/20 06:33:35;;;;;;;42.42;30.00;;;4.20;99.90;;;;;;5058097;28;20377;-81
2022/01/20 06:36:02;;;;;;;375.75;208.80;;;4.30;99.90;;;;;;5059651;28;20096;-82
2022/01/20 06:38:28;;;;;;;125.82;69.53;;;4.20;99.90;;;;;;5059488;28;20435;-82
2022/01/20 06:40:54;;;;;;;41.58;25.30;;;4.20;99.90;;;;;;5059290;28;20025;-81
2022/01/20 06:43:20;;;;;;;20.25;13.55;;;4.30;99.90;;;;;;5061907;28;20032;-82
2022/01/20 06:45:45;;;;;;;21.02;13.35;;;4.20;99.90;;;;;;5061799;28;20031;-82
2022/01/20 06:48:11;;;;;;;28.85;17.80;;;4.20;99.90;;;;;;5060566;28;20104;-82
2022/01/20 06:50:38;;;;;;;42.60;25.52;;;4.20;99.90;;;;;;5058386;28;20032;-82
2022/01/20 06:53:04;;;;;;;32.08;20.10;;;4.30;99.90;;;;;;5058055;28;20029;-82
2022/01/20 06:55:30;;;;;;;25.02;17.25;;;4.30;99.90;;;;;;5057655;28;20078;-82
2022/01/20 06:57:56;;;;;;;20.08;14.18;;;4.30;99.90;;;;;;5058900;28;20108;-81
2022/01/20 07:00:24;;;;;;;17.05;12.32;;;4.30;99.90;;;;;;5059246;28;20021;-82
2022/01/20 07:02:51;;;;;;;19.40;13.30;;;4.30;99.90;;;;;;5059217;28;20411;-82
2022/01/20 07:05:19;;;;;;;21.60;14.23;;;4.30;99.90;;;;;;5059342;28;20017;-81
2022/01/20 07:07:46;;;;;;;21.05;14.35;;;4.30;99.90;;;;;;5059645;28;20055;-82
2022/01/20 07:10:13;;;;;;;20.58;14.00;;;4.30;99.90;;;;;;5059210;28;20385;-81
2022/01/20 07:12:41;;;;;;;22.35;14.45;;;4.30;99.90;;;;;;5057632;28;20033;-82
2022/01/20 07:15:08;;;;;;;21.70;13.73;;;4.30;99.90;;;;;;5059083;28;20464;-81
2022/01/20 07:17:34;;;;;;;22.13;14.43;;;4.40;99.90;;;;;;5057349;28;20541;-81
2022/01/20 07:19:59;;;;;;;22.08;14.90;;;4.40;99.90;;;;;;5058798;28;20068;-81
2022/01/20 07:22:25;;;;;;;22.73;13.82;;;4.40;99.90;;;;;;5057293;28;20067;-81
2022/01/20 07:24:51;;;;;;;20.15;13.73;;;4.40;99.90;;;;;;5057099;28;20025;-82
2022/01/20 07:27:17;;;;;;;19.10;13.52;;;4.40;99.90;;;;;;5058281;28;20025;-82
2022/01/20 07:29:43;;;;;;;18.27;13.73;;;4.40;99.90;;;;;;5058587;28;20099;-82
2022/01/20 07:32:09;;;;;;;20.13;13.55;;;4.40;99.90;;;;;;5058214;28;20043;-82
2022/01/20 07:34:35;;;;;;;20.92;13.07;;;4.40;99.90;;;;;;5058933;28;20025;-82
2022/01/20 07:37:02;;;;;;;20.63;14.30;;;4.40;99.90;;;;;;5058001;28;20035;-82
2022/01/20 07:39:28;;;;;;;18.80;14.10;;;4.40;99.90;;;;;;5057839;28;20017;-82
2022/01/20 07:41:54;;;;;;;24.55;14.73;;;4.40;99.90;;;;;;5057140;28;20032;-81
2022/01/20 07:44:20;;;;;;;21.80;13.52;;;4.40;99.90;;;;;;5060369;28;20029;-82
2022/01/20 07:46:47;;;;;;;18.35;13.75;;;4.50;99.90;;;;;;5056998;28;20063;-82
2022/01/20 07:49:15;;;;;;;19.52;12.02;;;4.50;99.90;;;;;;5057842;28;20078;-82
2022/01/20 07:51:41;;;;;;;19.13;12.55;;;4.50;99.90;;;;;;5056409;28;20031;-81
2022/01/20 07:54:07;;;;;;;20.33;12.88;;;4.50;99.90;;;;;;5056573;28;20037;-82
2022/01/20 07:56:32;;;;;;;17.60;12.02;;;4.50;99.90;;;;;;5056645;28;20148;-81
2022/01/20 07:58:58;;;;;;;18.83;12.57;;;4.50;99.90;;;;;;5056808;28;20025;-82
2022/01/20 08:01:24;;;;;;;17.92;12.55;;;4.50;99.90;;;;;;5056551;28;20433;-81
2022/01/20 08:03:54;;;;;;;17.25;13.18;;;4.50;99.90;;;;;;5056639;28;20029;-82
2022/01/20 08:06:20;;;;;;;19.60;13.95;;;4.50;99.90;;;;;;5057765;28;20025;-81
2022/01/20 08:08:47;;;;;;;21.50;15.80;;;4.50;99.90;;;;;;5057788;28;20476;-81
2022/01/20 08:11:13;;;;;;;22.02;14.82;;;4.60;99.90;;;;;;5057530;28;20092;-82
2022/01/20 08:13:39;;;;;;;19.75;13.45;;;4.50;99.90;;;;;;5057712;28;20029;-82
2022/01/20 08:16:05;;;;;;;22.15;13.32;;;4.60;99.90;;;;;;5056483;28;20052;-83
2022/01/20 08:18:31;;;;;;;20.95;14.63;;;4.60;99.90;;;;;;5057766;28;20052;-81
2022/01/20 08:20:56;;;;;;;21.42;13.73;;;4.70;99.90;;;;;;5042869;28;20021;-82
2022/01/20 08:23:22;;;;;;;20.40;14.57;;;4.70;99.90;;;;;;5056347;28;20405;-82
2022/01/20 08:25:48;;;;;;;19.65;13.55;;;4.70;99.90;;;;;;5057331;28;20021;-81
2022/01/20 08:28:17;;;;;;;53.13;27.75;;;4.80;99.90;;;;;;5057523;28;20095;-81
2022/01/20 08:30:43;;;;;;;19.15;12.80;;;4.80;99.90;;;;;;5056219;28;20481;-81
2022/01/20 08:33:09;;;;;;;99.93;47.70;;;4.80;99.90;;;;;;5058329;28;20025;-81
2022/01/20 08:35:34;;;;;;;82.80;35.90;;;4.90;99.90;;;;;;5056078;28;20401;-81
2022/01/20 08:38:03;;;;;;;40.97;20.83;;;4.90;99.90;;;;;;5057629;28;20035;-81
2022/01/20 08:40:29;;;;;;;26.98;15.70;;;5.10;99.90;;;;;;5057278;28;20024;-81
2022/01/20 08:42:56;;;;;;;20.73;13.95;;;5.20;99.90;;;;;;5057202;28;20029;-81
2022/01/20 08:45:25;;;;;;;19.00;14.68;;;5.30;99.90;;;;;;5057657;28;20480;-81
2022/01/20 08:47:54;;;;;;;27.90;17.30;;;5.30;99.90;;;;;;5055862;28;20025;-81
2022/01/20 08:50:21;;;;;;;27.52;16.42;;;5.30;99.90;;;;;;5057508;28;20029;-80
2022/01/20 08:52:47;;;;;;;11.07;8.80;;;5.30;99.90;;;;;;5055813;28;20029;-80
2022/01/20 08:55:13;;;;;;;143.95;67.40;;;5.30;99.90;;;;;;5055662;28;20025;-81
2022/01/20 08:57:39;;;;;;;23.52;14.77;;;5.30;99.90;;;;;;5057256;28;20013;-80
2022/01/20 09:00:07;;;;;;;12.77;8.02;;;5.30;99.90;;;;;;5057565;28;20079;-81
2022/01/20 09:02:32;;;;;;;23.85;13.25;;;5.40;99.90;;;;;;5055297;28;20024;-80
2022/01/20 09:04:59;;;;;;;62.60;32.20;;;5.40;99.90;;;;;;5048295;28;20029;-80
2022/01/20 09:07:26;;;;;;;10.30;7.28;;;5.50;99.90;;;;;;5061126;28;20028;-79
2022/01/20 09:09:55;;;;;;;9.77;7.38;;;5.50;99.90;;;;;;5054767;28;20043;-79
2022/01/20 09:17:46;;;;;;;7.88;7.05;;;5.70;99.90;;;;;;5064712;28;20075;-78
2022/01/20 09:20:12;;;;;;;9.02;7.68;;;5.70;99.90;;;;;;5061892;28;20021;-79
2022/01/20 09:22:38;;;;;;;10.30;7.38;;;5.80;99.90;;;;;;5057238;28;20519;-79
2022/01/20 09:25:05;;;;;;;12.23;7.32;;;5.80;99.90;;;;;;5055218;28;20512;-81
2022/01/20 09:27:32;;;;;;;9.90;7.85;;;5.90;99.90;;;;;;5046859;28;20071;-80
2022/01/20 09:29:58;;;;;;;9.98;6.57;;;5.90;99.90;;;;;;5051227;28;20115;-80
2022/01/20 09:32:27;;;;;;;8.80;7.18;;;6.10;99.90;;;;;;5047135;28;20029;-80
2022/01/20 09:34:53;;;;;;;9.25;6.85;;;6.10;99.90;;;;;;5058613;28;20025;-80
2022/01/20 09:37:18;;;;;;;9.60;6.90;;;6.20;99.90;;;;;;5048451;28;20025;-80
2022/01/20 09:39:45;;;;;;;8.05;6.43;;;6.30;99.90;;;;;;5058821;28;20115;-80
2022/01/20 09:42:11;;;;;;;7.78;6.68;;;6.40;99.90;;;;;;5058888;28;20025;-80
2022/01/20 09:44:44;;;;;;;9.38;7.10;;;6.50;99.90;;;;;;5059011;28;20463;-80
2022/01/20 09:47:11;;;;;;;8.45;7.18;;;6.40;99.90;;;;;;5057909;28;20029;-80
2022/01/20 09:49:38;;;;;;;9.18;7.70;;;6.50;99.90;;;;;;5060177;28;20028;-80
2022/01/20 09:52:04;;;;;;;11.82;7.30;;;6.50;99.90;;;;;;5059021;28;20021;-80
2022/01/20 09:54:31;;;;;;;8.68;6.22;;;6.50;99.90;;;;;;5057862;28;20051;-80
2022/01/20 09:56:58;;;;;;;7.93;6.38;;;6.60;99.90;;;;;;5053541;28;20017;-79
2022/01/20 09:59:24;;;;;;;7.00;5.78;;;6.60;99.90;;;;;;5055375;28;20032;-79
2022/01/20 10:01:56;;;;;;;7.38;6.32;;;6.50;99.90;;;;;;5060310;28;20109;-79
2022/01/20 10:16:31;;;;;;;9.75;6.38;;;6.40;99.90;;;;;;5085760;28;20523;-79
2022/01/20 10:31:19;;;;;;;18.05;8.65;;;6.20;99.90;;;;;;5740680;22;20068;-79
2022/01/20 10:33:46;;;;;;;9.88;8.38;;;6.10;99.90;;;;;;5002823;28;21074;-83
2022/01/20 10:36:13;;;;;;;14.10;9.30;;;6.10;99.90;;;;;;5001115;28;20030;-83
2022/01/20 10:39:08;;;;;;;13.23;9.05;;;6.10;99.90;;;;;;5020847;28;20017;-83
2022/01/20 10:41:37;;;;;;;16.33;9.90;;;6.10;99.90;;;;;;5007057;28;20037;-79
2022/01/20 10:44:14;;;;;;;14.02;9.30;;;6.10;99.90;;;;;;4998961;28;20018;-79
2022/01/20 10:46:52;;;;;;;13.95;9.52;;;6.10;99.90;;;;;;5000874;28;20027;-78
2022/01/20 10:49:20;;;;;;;15.10;9.98;;;6.00;99.90;;;;;;5005693;28;20094;-79
2022/01/20 10:52:03;;;;;;;10.95;8.85;;;6.00;99.90;;;;;;5009271;28;20541;-79
2022/01/20 10:54:43;;;;;;;14.68;10.60;;;6.00;99.90;;;;;;4999848;28;20022;-81
2022/01/20 10:57:11;;;;;;;11.70;8.83;;;6.00;99.90;;;;;;5008358;28;20026;-80
2022/01/20 11:00:03;;;;;;;15.60;8.30;;;6.10;99.90;;;;;;5000072;28;20023;-79
2022/01/20 11:02:29;;;;;;;10.18;8.23;;;6.20;99.90;;;;;;5006942;28;20516;-80
2022/01/20 11:04:56;;;;;;;12.38;8.32;;;6.20;99.90;;;;;;5019421;28;20397;-80
2022/01/20 11:07:24;;;;;;;13.38;9.05;;;6.30;99.90;;;;;;5020733;28;20110;-80
2022/01/20 11:09:56;;;;;;;13.68;8.30;;;6.20;99.90;;;;;;5016813;28;20032;-79
2022/01/20 11:12:22;;;;;;;13.57;8.93;;;6.30;99.90;;;;;;5008082;28;20023;-80
2022/01/20 11:14:52;;;;;;;13.93;10.02;;;6.40;99.90;;;;;;4997968;28;20022;-80
2022/01/20 11:17:20;;;;;;;12.85;9.70;;;6.40;99.90;;;;;;4997535;28;20026;-80
2022/01/20 11:19:47;;;;;;;17.50;11.57;;;6.40;99.90;;;;;;4998199;28;20061;-80
2022/01/20 11:22:13;;;;;;;15.80;11.05;;;6.40;99.90;;;;;;5014315;28;20028;-80
2022/01/20 11:24:42;;;;;;;13.48;11.13;;;6.30;99.90;;;;;;5005175;28;20085;-79
2022/01/20 11:27:12;;;;;;;14.85;11.70;;;6.30;99.90;;;;;;4998209;28;20029;-80
2022/01/20 11:29:47;;;;;;;13.30;10.45;;;6.30;99.90;;;;;;5009161;28;20098;-80
2022/01/20 11:32:22;;;;;;;15.02;10.95;;;6.40;99.90;;;;;;5009860;28;20052;-79
2022/01/20 11:34:55;;;;;;;18.45;12.07;;;6.40;99.90;;;;;;5013187;28;20035;-80
2022/01/20 11:37:23;;;;;;;25.65;17.45;;;6.40;99.90;;;;;;5001379;28;20050;-80
2022/01/20 11:39:52;;;;;;;38.60;25.10;;;6.60;99.90;;;;;;5019996;28;20022;-80
2022/01/20 11:42:24;;;;;;;15.90;12.07;;;6.70;99.90;;;;;;5020520;28;20073;-80
2022/01/20 11:44:50;;;;;;;17.52;11.93;;;6.70;99.90;;;;;;5000910;28;20505;-80
2022/01/20 11:47:16;;;;;;;14.10;11.32;;;6.70;99.90;;;;;;4999613;28;20030;-80
2022/01/20 11:49:45;;;;;;;18.25;13.00;;;6.80;99.90;;;;;;5000891;28;20450;-80
2022/01/20 11:52:27;;;;;;;16.48;11.95;;;6.80;99.90;;;;;;4999099;28;20109;-81
2022/01/20 11:54:54;;;;;;;16.65;12.75;;;6.70;99.90;;;;;;5006043;28;20022;-80
2022/01/20 11:57:19;;;;;;;15.80;11.75;;;6.60;99.90;;;;;;5019483;28;20381;-80
2022/01/20 11:59:48;;;;;;;14.73;11.77;;;6.60;99.90;;;;;;5018589;28;20100;-81
2022/01/20 12:02:32;;;;;;;16.20;11.77;;;6.60;99.90;;;;;;5003315;28;20446;-80
2022/01/20 12:05:00;;;;;;;16.48;11.52;;;6.60;99.90;;;;;;4998659;28;20033;-80
2022/01/20 12:07:26;;;;;;;20.25;12.20;;;6.70;99.90;;;;;;5008398;28;20018;-80
2022/01/20 12:10:14;;;;;;;18.40;13.00;;;6.60;99.90;;;;;;4998390;28;20034;-80
2022/01/20 12:12:41;;;;;;;18.75;13.65;;;6.60;99.90;;;;;;5005055;28;20037;-80
2022/01/20 12:15:14;;;;;;;18.83;13.38;;;6.60;99.90;;;;;;5012389;28;20084;-80
2022/01/20 12:17:47;;;;;;;20.45;14.68;;;6.70;99.90;;;;;;5008049;28;20441;-80
2022/01/20 12:20:13;;;;;;;24.33;15.95;;;6.70;99.90;;;;;;5011208;28;20029;-80
2022/01/20 12:22:43;;;;;;;24.15;15.90;;;6.80;99.90;;;;;;5004349;28;20030;-80
2022/01/20 12:25:26;;;;;;;29.98;20.05;;;6.90;99.90;;;;;;5004081;28;20036;-80
2022/01/20 12:28:05;;;;;;;23.25;14.75;;;7.00;99.90;;;;;;5005517;28;20030;-80
2022/01/20 12:30:32;;;;;;;17.65;12.85;;;7.10;99.90;;;;;;5009046;28;20026;-80
2022/01/20 12:33:00;;;;;;;16.67;11.40;;;7.00;99.90;;;;;;5010082;28;20117;-79
2022/01/20 12:36:03;;;;;;;18.90;11.85;;;7.20;99.90;;;;;;5004727;28;20022;-80
2022/01/20 12:38:35;;;;;;;18.15;12.30;;;7.10;99.90;;;;;;5006096;28;20062;-81
2022/01/20 12:41:04;;;;;;;17.65;12.50;;;7.00;99.90;;;;;;5010355;28;20156;-79
2022/01/20 12:43:51;;;;;;;16.38;11.13;;;7.00;99.90;;;;;;5010091;28;20052;-81
2022/01/20 12:46:24;;;;;;;17.38;13.43;;;6.80;99.90;;;;;;5013499;28;20058;-81
2022/01/20 12:49:04;;;;;;;22.58;13.07;;;6.70;99.90;;;;;;5017197;28;20113;-81
2022/01/20 12:51:31;;;;;;;18.63;13.57;;;6.70;99.90;;;;;;5015557;28;20486;-81
2022/01/20 12:54:26;;;;;;;13.25;11.48;;;6.70;99.90;;;;;;5010510;28;20040;-80
2022/01/20 12:56:54;;;;;;;19.70;12.57;;;6.80;99.90;;;;;;5008407;28;20385;-80
2022/01/20 12:59:26;;;;;;;21.05;13.05;;;6.90;99.90;;;;;;5013530;28;20033;-79
2022/01/20 13:01:53;;;;;;;14.52;11.73;;;6.90;99.90;;;;;;5006383;28;20110;-81
2022/01/20 13:04:23;;;;;;;22.70;14.55;;;7.00;99.90;;;;;;5002009;28;20452;-80
2022/01/20 13:06:56;;;;;;;19.15;12.80;;;7.00;99.90;;;;;;5020357;28;20026;-81
2022/01/20 13:09:25;;;;;;;19.20;13.52;;;7.00;99.90;;;;;;5002811;28;20519;-79
2022/01/20 13:11:58;;;;;;;20.50;13.73;;;7.00;99.90;;;;;;5003149;28;20466;-80
2022/01/20 13:14:52;;;;;;;17.77;12.88;;;6.90;99.90;;;;;;5006195;28;20073;-79
2022/01/20 13:17:27;;;;;;;19.52;13.15;;;6.90;99.90;;;;;;5008248;28;20027;-80
2022/01/20 13:19:59;;;;;;;19.33;13.65;;;7.00;99.90;;;;;;5002238;28;20023;-79
2022/01/20 13:22:29;;;;;;;13.75;10.50;;;7.10;99.90;;;;;;5002159;28;20023;-79
2022/01/20 13:25:10;;;;;;;14.43;9.55;;;7.10;99.90;;;;;;4997356;28;20037;-78
2022/01/20 13:27:37;;;;;;;11.18;8.55;;;7.10;99.90;;;;;;4997435;28;20033;-80
2022/01/20 13:30:05;;;;;;;11.55;8.68;;;7.10;99.90;;;;;;4997315;28;20026;-79
2022/01/20 13:32:31;;;;;;;12.98;10.68;;;7.20;99.90;;;;;;4997073;28;20042;-79
2022/01/20 13:35:00;;;;;;;13.38;10.02;;;7.20;99.90;;;;;;5009310;28;20042;-79
2022/01/20 13:37:27;;;;;;;14.07;10.00;;;7.30;99.90;;;;;;4997433;28;20019;-78
2022/01/20 13:39:56;;;;;;;15.27;10.00;;;7.30;99.90;;;;;;5001262;28;20022;-79
2022/01/20 13:44:59;;;;;;;13.90;10.07;;;7.40;99.90;;;;;;5017000;28;20022;-80
2022/01/20 13:45:24;;;;;;;11.68;9.60;;;7.40;99.90;;;;;;5006985;28;20038;-80
2022/01/20 13:47:55;;;;;;;14.38;11.52;;;7.30;99.90;;;;;;5003868;28;20029;-82
2022/01/20 13:50:26;;;;;;;17.35;12.52;;;7.40;99.90;;;;;;4999272;28;20498;-81
2022/01/20 13:52:52;;;;;;;;;;;7.40;99.90;;;;;;4999844;28;20062;-82
2022/01/20 13:55:24;;;;;;;16.88;10.45;;;7.40;99.90;;;;;;4999290;28;19905;-81
2022/01/20 13:57:51;;;;;;;15.65;10.48;;;7.50;99.90;;;;;;5000918;28;20022;-81
2022/01/20 14:00:29;;;;;;;18.63;10.73;;;7.60;99.90;;;;;;5001074;28;20486;-81
2022/01/20 14:02:54;;;;;;;14.02;10.85;;;7.60;99.90;;;;;;5007820;28;20116;-82
2022/01/20 14:05:25;;;;;;;14.70;10.98;;;7.60;99.90;;;;;;5020314;28;20064;-82
2022/01/20 14:07:51;;;;;;;17.95;12.68;;;7.60;99.90;;;;;;5020556;28;20377;-82
2022/01/20 14:10:17;;;;;;;15.73;11.50;;;7.70;99.90;;;;;;5019084;28;20029;-81
2022/01/20 14:12:43;;;;;;;17.70;11.63;;;7.60;99.90;;;;;;5007877;28;20090;-82
2022/01/20 14:15:09;;;;;;;13.95;10.25;;;7.60;99.90;;;;;;5020102;28;20018;-82
2022/01/20 14:17:37;;;;;;;13.32;10.02;;;7.60;99.90;;;;;;5019384;28;20037;-81
2022/01/20 14:20:11;;;;;;;11.35;8.27;;;7.50;99.90;;;;;;5005853;28;20073;-81